sensor_id;sensor_type;location;lat;lon;timestamp;pressure;altitude;pressure_sealevel;temperature;humidity
25392;BME280;13329;48.402;11.718;2024-01-06T00:00:13;94981.22;;;7.80;95.03
25392;BME280;13329;48.402;11.718;2024-01-06T00:02:38;94984.41;;;7.67;95.88
25392;BME280;13329;48.402;11.718;2024-01-06T00:05:05;94987.81;;;7.57;96.61
25392;BME280;13329;48.402;11.718;2024-01-06T00:07:30;94989.66;;;7.72;96.56
25392;BME280;13329;48.402;11.718;2024-01-06T00:09:55;94979.13;;;7.57;95.06
25392;BME280;13329;48.402;11.718;2024-01-06T00:12:21;94989.63;;;7.52;96.56
25392;BME280;13329;48.402;11.718;2024-01-06T00:14:46;94985.72;;;7.49;97.11
25392;BME280;13329;48.402;11.718;2024-01-06T00:17:11;94988.84;;;7.51;97.73
25392;BME280;13329;48.402;11.718;2024-01-06T00:19:37;94994.88;;;7.57;97.75
25392;BME280;13329;48.402;11.718;2024-01-06T00:22:02;94992.78;;;7.69;96.91
25392;BME280;13329;48.402;11.718;2024-01-06T00:24:27;94999.34;;;7.56;95.94
25392;BME280;13329;48.402;11.718;2024-01-06T00:26:52;94997.00;;;7.50;97.17
25392;BME280;13329;48.402;11.718;2024-01-06T00:29:18;94995.94;;;7.56;98.10
25392;BME280;13329;48.402;11.718;2024-01-06T00:31:43;94995.94;;;7.66;97.67
25392;BME280;13329;48.402;11.718;2024-01-06T00:34:08;94993.28;;;7.71;97.58
25392;BME280;13329;48.402;11.718;2024-01-06T00:36:34;95001.19;;;7.76;96.84
25392;BME280;13329;48.402;11.718;2024-01-06T00:38:59;94993.84;;;7.78;95.92
25392;BME280;13329;48.402;11.718;2024-01-06T00:41:24;94992.25;;;7.77;95.94
25392;BME280;13329;48.402;11.718;2024-01-06T00:43:50;94993.06;;;7.78;95.89
25392;BME280;13329;48.402;11.718;2024-01-06T00:46:15;94991.72;;;7.80;96.27
25392;BME280;13329;48.402;11.718;2024-01-06T00:48:41;94989.34;;;7.84;95.34
25392;BME280;13329;48.402;11.718;2024-01-06T00:51:06;95000.66;;;7.84;95.57
25392;BME280;13329;48.402;11.718;2024-01-06T00:53:31;94988.31;;;7.80;95.67
25392;BME280;13329;48.402;11.718;2024-01-06T00:55:59;94984.66;;;7.86;95.24
25392;BME280;13329;48.402;11.718;2024-01-06T00:58:24;94992.00;;;7.79;95.86
25392;BME280;13329;48.402;11.718;2024-01-06T01:00:50;94983.81;;;7.85;95.66
25392;BME280;13329;48.402;11.718;2024-01-06T01:03:15;94984.38;;;7.82;95.37
25392;BME280;13329;48.402;11.718;2024-01-06T01:05:40;94985.44;;;7.81;95.66
25392;BME280;13329;48.402;11.718;2024-01-06T01:08:06;94990.69;;;7.76;95.84
25392;BME280;13329;48.402;11.718;2024-01-06T01:10:31;94981.75;;;7.57;95.65
25392;BME280;13329;48.402;11.718;2024-01-06T01:12:56;94982.03;;;7.65;96.44
25392;BME280;13329;48.402;11.718;2024-01-06T01:15:22;94979.69;;;7.49;97.53
25392;BME280;13329;48.402;11.718;2024-01-06T01:17:47;94979.69;;;7.54;98.75
25392;BME280;13329;48.402;11.718;2024-01-06T01:20:13;94980.69;;;7.42;98.47
25392;BME280;13329;48.402;11.718;2024-01-06T01:22:38;94974.69;;;7.72;97.15
25392;BME280;13329;48.402;11.718;2024-01-06T01:25:04;94987.53;;;7.74;96.06
25392;BME280;13329;48.402;11.718;2024-01-06T01:27:33;94988.06;;;7.66;97.00
25392;BME280;13329;48.402;11.718;2024-01-06T01:29:58;94985.44;;;7.66;96.79
25392;BME280;13329;48.402;11.718;2024-01-06T01:32:24;94988.84;;;7.61;97.21
25392;BME280;13329;48.402;11.718;2024-01-06T01:34:49;94984.91;;;7.74;96.58
25392;BME280;13329;48.402;11.718;2024-01-06T01:37:15;94983.59;;;7.77;96.42
25392;BME280;13329;48.402;11.718;2024-01-06T01:39:40;94984.91;;;7.79;95.80
25392;BME280;13329;48.402;11.718;2024-01-06T01:42:06;94982.81;;;7.76;96.24
25392;BME280;13329;48.402;11.718;2024-01-06T01:44:31;94980.97;;;7.82;95.90
25392;BME280;13329;48.402;11.718;2024-01-06T01:46:56;94985.97;;;7.73;95.33
25392;BME280;13329;48.402;11.718;2024-01-06T01:49:22;94988.84;;;7.71;95.58
25392;BME280;13329;48.402;11.718;2024-01-06T01:51:48;94989.66;;;7.67;96.15
25392;BME280;13329;48.402;11.718;2024-01-06T01:54:14;94993.28;;;7.71;96.22
25392;BME280;13329;48.402;11.718;2024-01-06T01:56:40;94988.59;;;7.63;96.02
25392;BME280;13329;48.402;11.718;2024-01-06T01:59:11;94992.00;;;7.74;95.84
25392;BME280;13329;48.402;11.718;2024-01-06T02:01:40;94993.31;;;7.66;95.70
25392;BME280;13329;48.402;11.718;2024-01-06T02:04:06;94994.13;;;7.71;95.63
25392;BME280;13329;48.402;11.718;2024-01-06T02:06:31;94993.84;;;7.68;95.62
25392;BME280;13329;48.402;11.718;2024-01-06T02:08:57;94996.97;;;7.70;95.44
25392;BME280;13329;48.402;11.718;2024-01-06T02:11:22;94989.13;;;7.60;96.53
25392;BME280;13329;48.402;11.718;2024-01-06T02:13:48;94993.06;;;7.67;96.38
25392;BME280;13329;48.402;11.718;2024-01-06T02:16:13;94989.09;;;7.65;96.13
25392;BME280;13329;48.402;11.718;2024-01-06T02:18:38;95001.44;;;7.64;95.80
25392;BME280;13329;48.402;11.718;2024-01-06T02:21:05;94999.63;;;7.60;96.52
25392;BME280;13329;48.402;11.718;2024-01-06T02:23:34;95007.22;;;7.46;97.13
25392;BME280;13329;48.402;11.718;2024-01-06T02:25:59;95010.09;;;7.29;98.77
25392;BME280;13329;48.402;11.718;2024-01-06T02:28:25;95004.88;;;7.34;98.63
25392;BME280;13329;48.402;11.718;2024-01-06T02:30:50;95004.31;;;7.37;99.22
25392;BME280;13329;48.402;11.718;2024-01-06T02:33:15;95000.09;;;7.06;99.84
25392;BME280;13329;48.402;11.718;2024-01-06T02:35:41;95001.69;;;7.12;100.00
25392;BME280;13329;48.402;11.718;2024-01-06T02:38:07;95003.81;;;7.30;100.00
25392;BME280;13329;48.402;11.718;2024-01-06T02:40:33;95003.53;;;7.16;100.00
25392;BME280;13329;48.402;11.718;2024-01-06T02:42:59;95005.88;;;7.18;100.00
25392;BME280;13329;48.402;11.718;2024-01-06T02:45:24;95004.09;;;7.34;100.00
25392;BME280;13329;48.402;11.718;2024-01-06T02:47:49;95002.75;;;7.41;99.40
25392;BME280;13329;48.402;11.718;2024-01-06T02:50:15;95002.50;;;7.53;97.50
25392;BME280;13329;48.402;11.718;2024-01-06T02:52:40;95004.34;;;7.53;96.38
25392;BME280;13329;48.402;11.718;2024-01-06T02:55:06;95009.56;;;7.37;96.60
25392;BME280;13329;48.402;11.718;2024-01-06T02:57:31;95016.38;;;7.18;98.46
25392;BME280;13329;48.402;11.718;2024-01-06T02:59:57;95014.28;;;7.10;99.68
25392;BME280;13329;48.402;11.718;2024-01-06T03:02:22;95010.59;;;7.01;100.00
25392;BME280;13329;48.402;11.718;2024-01-06T03:04:48;95015.03;;;7.00;100.00
25392;BME280;13329;48.402;11.718;2024-01-06T03:07:13;95016.66;;;7.22;99.45
25392;BME280;13329;48.402;11.718;2024-01-06T03:09:38;95017.97;;;7.19;99.24
25392;BME280;13329;48.402;11.718;2024-01-06T03:12:05;95026.81;;;6.92;100.00
25392;BME280;13329;48.402;11.718;2024-01-06T03:14:31;95021.56;;;6.87;100.00
25392;BME280;13329;48.402;11.718;2024-01-06T03:16:56;95024.72;;;6.94;100.00
25392;BME280;13329;48.402;11.718;2024-01-06T03:19:22;95020.53;;;6.99;100.00
25392;BME280;13329;48.402;11.718;2024-01-06T03:21:51;95015.56;;;7.07;100.00
25392;BME280;13329;48.402;11.718;2024-01-06T03:24:16;95013.72;;;7.08;100.00
25392;BME280;13329;48.402;11.718;2024-01-06T03:26:41;95011.09;;;7.03;99.38
25392;BME280;13329;48.402;11.718;2024-01-06T03:29:07;95016.66;;;7.22;98.78
25392;BME280;13329;48.402;11.718;2024-01-06T03:31:32;95017.41;;;7.17;97.86
25392;BME280;13329;48.402;11.718;2024-01-06T03:33:57;95022.63;;;6.97;98.34
25392;BME280;13329;48.402;11.718;2024-01-06T03:36:23;95032.03;;;6.82;99.19
25392;BME280;13329;48.402;11.718;2024-01-06T03:38:48;95023.25;;;6.56;100.00
25392;BME280;13329;48.402;11.718;2024-01-06T03:41:13;95022.47;;;6.56;100.00
25392;BME280;13329;48.402;11.718;2024-01-06T03:43:39;95027.75;;;6.61;100.00
25392;BME280;13329;48.402;11.718;2024-01-06T03:46:05;95034.50;;;6.47;100.00
25392;BME280;13329;48.402;11.718;2024-01-06T03:48:30;95033.44;;;6.37;100.00
25392;BME280;13329;48.402;11.718;2024-01-06T03:50:57;95037.00;;;6.26;100.00
25392;BME280;13329;48.402;11.718;2024-01-06T03:53:22;95029.81;;;6.49;100.00
25392;BME280;13329;48.402;11.718;2024-01-06T03:55:47;95029.22;;;6.41;100.00
25392;BME280;13329;48.402;11.718;2024-01-06T03:58:12;95029.41;;;6.20;100.00
25392;BME280;13329;48.402;11.718;2024-01-06T04:00:38;95031.38;;;6.02;100.00
25392;BME280;13329;48.402;11.718;2024-01-06T04:03:03;95027.03;;;6.18;100.00
25392;BME280;13329;48.402;11.718;2024-01-06T04:05:29;95030.66;;;6.12;100.00
25392;BME280;13329;48.402;11.718;2024-01-06T04:07:54;95034.38;;;6.21;100.00
25392;BME280;13329;48.402;11.718;2024-01-06T04:10:20;95026.88;;;5.98;100.00
25392;BME280;13329;48.402;11.718;2024-01-06T04:12:45;95040.34;;;6.11;100.00
25392;BME280;13329;48.402;11.718;2024-01-06T04:15:10;95045.50;;;6.01;100.00
25392;BME280;13329;48.402;11.718;2024-01-06T04:17:36;95040.56;;;6.05;100.00
25392;BME280;13329;48.402;11.718;2024-01-06T04:20:01;95044.84;;;6.21;100.00
25392;BME280;13329;48.402;11.718;2024-01-06T04:22:26;95045.91;;;6.25;100.00
25392;BME280;13329;48.402;11.718;2024-01-06T04:24:51;95041.47;;;6.26;100.00
25392;BME280;13329;48.402;11.718;2024-01-06T04:27:17;95051.88;;;6.15;100.00
25392;BME280;13329;48.402;11.718;2024-01-06T04:29:42;95044.34;;;6.24;100.00
25392;BME280;13329;48.402;11.718;2024-01-06T04:32:07;95048.59;;;6.35;100.00
25392;BME280;13329;48.402;11.718;2024-01-06T04:34:33;95050.16;;;6.36;100.00
25392;BME280;13329;48.402;11.718;2024-01-06T04:36:58;95054.97;;;6.07;100.00
25392;BME280;13329;48.402;11.718;2024-01-06T04:39:24;95063.03;;;5.96;100.00
25392;BME280;13329;48.402;11.718;2024-01-06T04:41:49;95057.84;;;6.06;100.00
25392;BME280;13329;48.402;11.718;2024-01-06T04:44:14;95064.91;;;6.48;100.00
25392;BME280;13329;48.402;11.718;2024-01-06T04:46:39;95064.66;;;6.49;100.00
25392;BME280;13329;48.402;11.718;2024-01-06T04:49:05;95068.97;;;6.23;100.00
25392;BME280;13329;48.402;11.718;2024-01-06T04:51:30;95076.81;;;6.18;100.00
25392;BME280;13329;48.402;11.718;2024-01-06T04:53:55;95071.09;;;6.31;100.00
25392;BME280;13329;48.402;11.718;2024-01-06T04:56:21;95062.53;;;6.46;100.00
25392;BME280;13329;48.402;11.718;2024-01-06T04:58:46;95077.19;;;6.42;100.00
25392;BME280;13329;48.402;11.718;2024-01-06T05:01:11;95075.66;;;6.51;100.00
25392;BME280;13329;48.402;11.718;2024-01-06T05:03:37;95074.81;;;6.40;100.00
25392;BME280;13329;48.402;11.718;2024-01-06T05:06:02;95076.16;;;6.43;100.00
25392;BME280;13329;48.402;11.718;2024-01-06T05:08:28;95079.91;;;6.15;100.00
25392;BME280;13329;48.402;11.718;2024-01-06T05:10:56;95077.06;;;6.22;100.00
25392;BME280;13329;48.402;11.718;2024-01-06T05:13:21;95082.88;;;6.29;100.00
25392;BME280;13329;48.402;11.718;2024-01-06T05:15:46;95088.66;;;6.31;100.00
25392;BME280;13329;48.402;11.718;2024-01-06T05:18:12;95092.06;;;6.31;100.00
25392;BME280;13329;48.402;11.718;2024-01-06T05:20:37;95090.81;;;6.02;100.00
25392;BME280;13329;48.402;11.718;2024-01-06T05:23:02;95088.94;;;5.97;100.00
25392;BME280;13329;48.402;11.718;2024-01-06T05:25:27;95093.91;;;5.99;100.00
25392;BME280;13329;48.402;11.718;2024-01-06T05:27:53;95095.72;;;5.93;100.00
25392;BME280;13329;48.402;11.718;2024-01-06T05:30:18;95095.91;;;5.86;100.00
25392;BME280;13329;48.402;11.718;2024-01-06T05:32:43;95104.13;;;5.68;100.00
25392;BME280;13329;48.402;11.718;2024-01-06T05:35:09;95100.97;;;5.66;100.00
25392;BME280;13329;48.402;11.718;2024-01-06T05:37:34;95108.56;;;5.68;100.00
25392;BME280;13329;48.402;11.718;2024-01-06T05:40:00;95103.00;;;5.59;100.00
25392;BME280;13329;48.402;11.718;2024-01-06T05:42:28;95113.09;;;5.77;100.00
25392;BME280;13329;48.402;11.718;2024-01-06T05:44:53;95113.09;;;5.77;100.00
25392;BME280;13329;48.402;11.718;2024-01-06T05:47:19;95122.03;;;5.81;100.00
25392;BME280;13329;48.402;11.718;2024-01-06T05:49:44;95130.97;;;5.85;100.00
25392;BME280;13329;48.402;11.718;2024-01-06T05:52:10;95131.94;;;5.79;100.00
25392;BME280;13329;48.402;11.718;2024-01-06T05:54:35;95133.41;;;5.92;100.00
25392;BME280;13329;48.402;11.718;2024-01-06T05:57:00;95138.88;;;5.90;98.81
25392;BME280;13329;48.402;11.718;2024-01-06T05:59:26;95146.34;;;5.77;97.72
25392;BME280;13329;48.402;11.718;2024-01-06T06:01:51;95152.41;;;5.82;98.13
25392;BME280;13329;48.402;11.718;2024-01-06T06:04:17;95155.88;;;5.61;99.85
25392;BME280;13329;48.402;11.718;2024-01-06T06:06:42;95160.00;;;5.84;98.67
25392;BME280;13329;48.402;11.718;2024-01-06T06:09:08;95167.50;;;5.70;98.31
25392;BME280;13329;48.402;11.718;2024-01-06T06:11:35;95171.16;;;5.74;99.18
25392;BME280;13329;48.402;11.718;2024-01-06T06:14:00;95178.38;;;5.62;99.52
25392;BME280;13329;48.402;11.718;2024-01-06T06:16:28;95176.88;;;5.66;99.87
25392;BME280;13329;48.402;11.718;2024-01-06T06:18:53;95189.22;;;5.49;100.00
25392;BME280;13329;48.402;11.718;2024-01-06T06:21:18;95196.50;;;5.42;100.00
25392;BME280;13329;48.402;11.718;2024-01-06T06:23:43;95190.00;;;5.22;100.00
25392;BME280;13329;48.402;11.718;2024-01-06T06:26:09;95190.50;;;5.02;100.00
25392;BME280;13329;48.402;11.718;2024-01-06T06:28:35;95194.16;;;5.01;100.00
25392;BME280;13329;48.402;11.718;2024-01-06T06:31:03;95189.47;;;5.25;100.00
25392;BME280;13329;48.402;11.718;2024-01-06T06:33:29;95189.31;;;5.32;100.00
25392;BME280;13329;48.402;11.718;2024-01-06T06:35:54;95193.94;;;5.47;100.00
25392;BME280;13329;48.402;11.718;2024-01-06T06:38:20;95201.28;;;5.50;100.00
25392;BME280;13329;48.402;11.718;2024-01-06T06:40:46;95186.97;;;5.57;99.43
25392;BME280;13329;48.402;11.718;2024-01-06T06:43:12;95202.31;;;5.49;98.77
25392;BME280;13329;48.402;11.718;2024-01-06T06:45:38;95209.13;;;5.50;99.31
25392;BME280;13329;48.402;11.718;2024-01-06T06:48:03;95209.19;;;5.11;99.80
25392;BME280;13329;48.402;11.718;2024-01-06T06:50:29;95211.56;;;5.34;100.00
25392;BME280;13329;48.402;11.718;2024-01-06T06:52:54;95212.56;;;5.55;99.49
25392;BME280;13329;48.402;11.718;2024-01-06T06:55:19;95210.16;;;5.49;97.39
25392;BME280;13329;48.402;11.718;2024-01-06T06:57:45;95211.00;;;5.54;97.55
25392;BME280;13329;48.402;11.718;2024-01-06T07:00:10;95215.28;;;5.38;96.72
25392;BME280;13329;48.402;11.718;2024-01-06T07:02:36;95223.91;;;5.61;96.75
25392;BME280;13329;48.402;11.718;2024-01-06T07:05:02;95218.84;;;5.54;96.69
25392;BME280;13329;48.402;11.718;2024-01-06T07:07:27;95221.47;;;5.54;95.21
25392;BME280;13329;48.402;11.718;2024-01-06T07:09:52;95213.28;;;5.95;92.39
25392;BME280;13329;48.402;11.718;2024-01-06T07:12:17;95222.50;;;5.75;94.15
25392;BME280;13329;48.402;11.718;2024-01-06T07:14:43;95221.75;;;5.80;94.11
25392;BME280;13329;48.402;11.718;2024-01-06T07:17:08;95218.00;;;5.49;95.71
25392;BME280;13329;48.402;11.718;2024-01-06T07:19:34;95219.53;;;5.66;94.92
25392;BME280;13329;48.402;11.718;2024-01-06T07:22:00;95226.38;;;5.73;94.24
25392;BME280;13329;48.402;11.718;2024-01-06T07:24:25;95237.47;;;5.36;95.28
25392;BME280;13329;48.402;11.718;2024-01-06T07:26:51;95235.97;;;5.18;98.09
25392;BME280;13329;48.402;11.718;2024-01-06T07:29:17;95237.78;;;5.39;98.52
25392;BME280;13329;48.402;11.718;2024-01-06T07:31:42;95239.97;;;5.48;97.37
25392;BME280;13329;48.402;11.718;2024-01-06T07:34:07;95236.84;;;5.51;96.59
25392;BME280;13329;48.402;11.718;2024-01-06T07:36:32;95243.56;;;5.20;98.28
25392;BME280;13329;48.402;11.718;2024-01-06T07:38:58;95242.47;;;5.37;97.76
25392;BME280;13329;48.402;11.718;2024-01-06T07:41:23;95247.06;;;5.08;98.94
25392;BME280;13329;48.402;11.718;2024-01-06T07:43:48;95250.88;;;5.18;100.00
25392;BME280;13329;48.402;11.718;2024-01-06T07:46:13;95249.03;;;5.18;100.00
25392;BME280;13329;48.402;11.718;2024-01-06T07:48:39;95249.53;;;5.37;100.00
25392;BME280;13329;48.402;11.718;2024-01-06T07:51:04;95246.59;;;5.33;99.46
25392;BME280;13329;48.402;11.718;2024-01-06T07:53:30;95256.94;;;5.23;99.97
25392;BME280;13329;48.402;11.718;2024-01-06T07:55:55;95260.22;;;5.13;100.00
25392;BME280;13329;48.402;11.718;2024-01-06T07:58:21;95262.03;;;5.13;100.00
25392;BME280;13329;48.402;11.718;2024-01-06T08:00:47;95259.72;;;5.17;100.00
25392;BME280;13329;48.402;11.718;2024-01-06T08:03:12;95273.03;;;5.15;100.00
25392;BME280;13329;48.402;11.718;2024-01-06T08:05:37;95266.63;;;5.06;100.00
25392;BME280;13329;48.402;11.718;2024-01-06T08:08:03;95273.50;;;5.12;100.00
25392;BME280;13329;48.402;11.718;2024-01-06T08:10:29;95274.53;;;5.11;100.00
25392;BME280;13329;48.402;11.718;2024-01-06T08:12:54;95272.78;;;5.17;100.00
25392;BME280;13329;48.402;11.718;2024-01-06T08:15:20;95273.31;;;4.97;100.00
25392;BME280;13329;48.402;11.718;2024-01-06T08:17:45;95280.47;;;4.84;100.00
25392;BME280;13329;48.402;11.718;2024-01-06T08:20:12;95284.81;;;4.62;100.00
25392;BME280;13329;48.402;11.718;2024-01-06T08:22:38;95288.13;;;4.74;100.00
25392;BME280;13329;48.402;11.718;2024-01-06T08:25:03;95291.44;;;5.03;100.00
25392;BME280;13329;48.402;11.718;2024-01-06T08:27:31;95295.97;;;4.91;100.00
25392;BME280;13329;48.402;11.718;2024-01-06T08:29:56;95294.31;;;4.68;100.00
25392;BME280;13329;48.402;11.718;2024-01-06T08:32:21;95296.69;;;4.36;100.00
25392;BME280;13329;48.402;11.718;2024-01-06T08:34:47;95300.16;;;4.58;100.00
25392;BME280;13329;48.402;11.718;2024-01-06T08:37:12;95296.69;;;4.36;100.00
25392;BME280;13329;48.402;11.718;2024-01-06T08:39:38;95300.31;;;4.52;100.00
25392;BME280;13329;48.402;11.718;2024-01-06T08:42:03;95306.16;;;4.59;100.00
25392;BME280;13329;48.402;11.718;2024-01-06T08:44:29;95304.59;;;4.92;100.00
25392;BME280;13329;48.402;11.718;2024-01-06T08:46:54;95307.56;;;5.17;100.00
25392;BME280;13329;48.402;11.718;2024-01-06T08:49:19;95301.72;;;5.10;100.00
25392;BME280;13329;48.402;11.718;2024-01-06T08:51:45;95305.59;;;5.07;100.00
25392;BME280;13329;48.402;11.718;2024-01-06T08:54:10;95308.06;;;5.14;100.00
25392;BME280;13329;48.402;11.718;2024-01-06T08:56:35;95313.91;;;5.21;100.00
25392;BME280;13329;48.402;11.718;2024-01-06T08:59:01;95318.13;;;5.05;100.00
25392;BME280;13329;48.402;11.718;2024-01-06T09:01:26;95314.00;;;4.93;100.00
25392;BME280;13329;48.402;11.718;2024-01-06T09:03:51;95316.31;;;5.06;100.00
25392;BME280;13329;48.402;11.718;2024-01-06T09:06:17;95319.31;;;4.98;100.00
25392;BME280;13329;48.402;11.718;2024-01-06T09:08:42;95313.78;;;4.77;100.00
25392;BME280;13329;48.402;11.718;2024-01-06T09:11:07;95317.75;;;4.97;100.00
25392;BME280;13329;48.402;11.718;2024-01-06T09:13:33;95317.34;;;4.88;100.00
25392;BME280;13329;48.402;11.718;2024-01-06T09:15:59;95326.16;;;4.99;100.00
25392;BME280;13329;48.402;11.718;2024-01-06T09:18:28;95321.22;;;5.19;100.00
25392;BME280;13329;48.402;11.718;2024-01-06T09:20:53;95325.50;;;5.08;100.00
25392;BME280;13329;48.402;11.718;2024-01-06T09:23:19;95329.78;;;4.81;100.00
25392;BME280;13329;48.402;11.718;2024-01-06T09:25:45;95337.69;;;4.69;100.00
25392;BME280;13329;48.402;11.718;2024-01-06T09:28:14;95337.22;;;4.72;100.00
25392;BME280;13329;48.402;11.718;2024-01-06T09:30:39;95334.72;;;4.94;100.00
25392;BME280;13329;48.402;11.718;2024-01-06T09:33:04;95332.72;;;4.84;100.00
25392;BME280;13329;48.402;11.718;2024-01-06T09:35:30;95329.09;;;4.85;100.00
25392;BME280;13329;48.402;11.718;2024-01-06T09:37:55;95328.69;;;4.94;100.00
25392;BME280;13329;48.402;11.718;2024-01-06T09:40:22;95334.53;;;5.01;100.00
25392;BME280;13329;48.402;11.718;2024-01-06T09:42:49;95331.59;;;5.14;100.00
25392;BME280;13329;48.402;11.718;2024-01-06T09:45:15;95334.84;;;5.04;100.00
25392;BME280;13329;48.402;11.718;2024-01-06T09:47:40;95333.03;;;4.88;100.00
25392;BME280;13329;48.402;11.718;2024-01-06T09:50:08;95326.16;;;4.99;100.00
25392;BME280;13329;48.402;11.718;2024-01-06T09:52:40;95334.28;;;5.19;100.00
25392;BME280;13329;48.402;11.718;2024-01-06T09:55:10;95337.38;;;5.33;100.00
25392;BME280;13329;48.402;11.718;2024-01-06T09:57:36;95345.84;;;5.23;100.00
25392;BME280;13329;48.402;11.718;2024-01-06T10:00:02;95337.03;;;5.12;100.00
25392;BME280;13329;48.402;11.718;2024-01-06T10:02:28;95341.16;;;5.42;100.00
25392;BME280;13329;48.402;11.718;2024-01-06T10:04:53;95347.19;;;5.26;100.00
25392;BME280;13329;48.402;11.718;2024-01-06T10:07:18;95338.28;;;5.44;100.00
25392;BME280;13329;48.402;11.718;2024-01-06T10:09:43;95341.00;;;5.71;100.00
25392;BME280;13329;48.402;11.718;2024-01-06T10:12:09;95340.22;;;5.70;100.00
25392;BME280;13329;48.402;11.718;2024-01-06T10:14:35;95339.19;;;5.71;100.00
25392;BME280;13329;48.402;11.718;2024-01-06T10:17:01;95339.53;;;5.41;100.00
25392;BME280;13329;48.402;11.718;2024-01-06T10:19:26;95337.75;;;5.63;100.00
25392;BME280;13329;48.402;11.718;2024-01-06T10:21:51;95340.22;;;5.92;100.00
25392;BME280;13329;48.402;11.718;2024-01-06T10:24:18;95338.94;;;6.16;100.00
25392;BME280;13329;48.402;11.718;2024-01-06T10:26:45;95341.03;;;5.93;99.11
25392;BME280;13329;48.402;11.718;2024-01-06T10:29:10;95338.19;;;5.77;100.00
25392;BME280;13329;48.402;11.718;2024-01-06T10:31:36;95340.63;;;5.84;100.00
25392;BME280;13329;48.402;11.718;2024-01-06T10:34:02;95335.84;;;5.98;100.00
25392;BME280;13329;48.402;11.718;2024-01-06T10:36:28;95330.06;;;5.96;99.70
25392;BME280;13329;48.402;11.718;2024-01-06T10:38:54;95326.81;;;5.88;100.00
25392;BME280;13329;48.402;11.718;2024-01-06T10:41:20;95319.09;;;5.77;100.00
25392;BME280;13329;48.402;11.718;2024-01-06T10:43:47;95322.69;;;5.93;100.00
25392;BME280;13329;48.402;11.718;2024-01-06T10:46:13;95327.13;;;6.14;100.00
25392;BME280;13329;48.402;11.718;2024-01-06T10:48:41;95329.22;;;6.39;98.17
25392;BME280;13329;48.402;11.718;2024-01-06T10:51:11;95322.38;;;6.11;96.33
25392;BME280;13329;48.402;11.718;2024-01-06T10:53:37;95315.72;;;6.03;98.24
25392;BME280;13329;48.402;11.718;2024-01-06T10:56:05;95325.94;;;6.27;98.57
25392;BME280;13329;48.402;11.718;2024-01-06T10:58:32;95328.38;;;6.33;98.03
25392;BME280;13329;48.402;11.718;2024-01-06T11:00:59;95325.50;;;6.35;96.63
25392;BME280;13329;48.402;11.718;2024-01-06T11:03:26;95331.59;;;6.40;96.59
25392;BME280;13329;48.402;11.718;2024-01-06T11:05:53;95313.94;;;6.58;95.25
25392;BME280;13329;48.402;11.718;2024-01-06T11:08:19;95317.13;;;6.65;95.46
25392;BME280;13329;48.402;11.718;2024-01-06T11:10:46;95317.66;;;6.62;94.13
25392;BME280;13329;48.402;11.718;2024-01-06T11:13:14;95319.03;;;6.15;94.12
25392;BME280;13329;48.402;11.718;2024-01-06T11:15:49;95318.41;;;6.08;93.94
25392;BME280;13329;48.402;11.718;2024-01-06T11:24:25;95323.84;;;6.02;95.31
25392;BME280;13329;48.402;11.718;2024-01-06T11:26:52;95322.38;;;6.11;97.22
25392;BME280;13329;48.402;11.718;2024-01-06T11:29:20;95324.47;;;6.09;93.28
25392;BME280;13329;48.402;11.718;2024-01-06T11:34:52;95315.13;;;6.18;95.25
25392;BME280;13329;48.402;11.718;2024-01-06T11:37:25;95306.94;;;6.41;94.30
25392;BME280;13329;48.402;11.718;2024-01-06T11:39:51;95311.16;;;6.15;93.37
25392;BME280;13329;48.402;11.718;2024-01-06T11:42:18;95309.63;;;6.20;94.00
25392;BME280;13329;48.402;11.718;2024-01-06T11:44:44;95312.19;;;6.41;93.74
25392;BME280;13329;48.402;11.718;2024-01-06T11:47:12;95306.50;;;6.23;93.27
25392;BME280;13329;48.402;11.718;2024-01-06T11:49:38;95313.81;;;6.42;92.52
25392;BME280;13329;48.402;11.718;2024-01-06T11:52:04;95293.44;;;6.55;91.18
25392;BME280;13329;48.402;11.718;2024-01-06T11:54:30;95299.13;;;6.47;91.27
25392;BME280;13329;48.402;11.718;2024-01-06T11:56:55;95301.84;;;6.52;92.03
25392;BME280;13329;48.402;11.718;2024-01-06T11:59:21;95309.00;;;6.34;92.75
25392;BME280;13329;48.402;11.718;2024-01-06T12:01:46;95306.81;;;6.26;93.66
25392;BME280;13329;48.402;11.718;2024-01-06T12:04:15;95292.59;;;6.44;94.00
25392;BME280;13329;48.402;11.718;2024-01-06T12:06:41;95290.19;;;6.37;92.36
25392;BME280;13329;48.402;11.718;2024-01-06T12:09:11;95293.63;;;6.43;92.92
25392;BME280;13329;48.402;11.718;2024-01-06T12:11:40;95277.78;;;6.60;90.19
25392;BME280;13329;48.402;11.718;2024-01-06T12:14:06;95274.47;;;6.37;92.39
25392;BME280;13329;48.402;11.718;2024-01-06T12:16:31;95282.88;;;6.17;93.24
25392;BME280;13329;48.402;11.718;2024-01-06T12:18:58;95280.00;;;6.14;94.76
25392;BME280;13329;48.402;11.718;2024-01-06T12:21:25;95276.22;;;6.32;94.19
25392;BME280;13329;48.402;11.718;2024-01-06T12:23:51;95272.41;;;6.17;93.61
25392;BME280;13329;48.402;11.718;2024-01-06T12:26:17;95275.63;;;5.98;94.31
25392;BME280;13329;48.402;11.718;2024-01-06T12:28:46;95277.59;;;6.12;93.66
25392;BME280;13329;48.402;11.718;2024-01-06T12:31:11;95278.47;;;6.18;95.15
25392;BME280;13329;48.402;11.718;2024-01-06T12:33:39;95274.34;;;6.27;94.46
25392;BME280;13329;48.402;11.718;2024-01-06T12:36:06;95272.94;;;6.47;92.24
25392;BME280;13329;48.402;11.718;2024-01-06T12:38:32;95275.56;;;6.47;91.76
25392;BME280;13329;48.402;11.718;2024-01-06T12:40:57;95274.06;;;6.56;90.24
25392;BME280;13329;48.402;11.718;2024-01-06T12:43:22;95280.09;;;6.24;90.07
25392;BME280;13329;48.402;11.718;2024-01-06T12:45:47;95280.47;;;6.11;92.72
25392;BME280;13329;48.402;11.718;2024-01-06T12:48:14;95275.34;;;6.21;92.80
25392;BME280;13329;48.402;11.718;2024-01-06T12:50:39;95284.72;;;6.17;92.79
25392;BME280;13329;48.402;11.718;2024-01-06T12:53:04;95281.91;;;5.97;92.13
25392;BME280;13329;48.402;11.718;2024-01-06T12:55:29;95281.59;;;5.93;93.06